TAPA

V.C. Bird International Airport

St. George, Antigua and Barbuda
TAF TAPA 181700Z 1818/1918 13008KT 9999 SCT018 SCT036
Issued Valid From Valid To
Dec-18 @ 17:00 UTC
(7 hours ago)
Dec-18 @ 18:00 UTC
(6 hours ago)
Dec-19 @ 18:00 UTC
(in 18 hours)
Dec-18 @ 18:00 to Dec-19 @ 18:00
TAF TAPA 181700Z 1818/1918 13008KT 9999 SCT018 SCT036
Wind Visibility Clouds
130° at 8 knots 10,000+ meters
  • Scattered at 1,800' AGL
  • Scattered at 3,600' AGL
TAF TAPA 181700Z 1818/1918 13008KT 9999 SCT018 SCT036
Issued Dec-18 @ 17:00 UTC
(7 hours ago)
Valid From Dec-18 @ 18:00 UTC
(6 hours ago)
Valid To Dec-19 @ 18:00 UTC
(in 18 hours)
Dec-18 @ 18:00 - Dec-19 @ 18:00
Wind Visibility
130° at 8 knots 10,000+ meters
Clouds
  • Scattered at 1,800' AGL
  • Scattered at 3,600' AGL